Time;durP1;ratioP1;P1;durP2;ratioP2;P2;SDS_P1;SDS_P2;PMS_P1;PMS_P2;Temp;Humidity;BMP_temperature;BMP_pressure;BME280_temperature;BME280_humidity;BME280_pressure;Samples;Min_cycle;Max_cycle;Signal;HPM_P1;HPM_P2
2023/01/27 00:00:17;;;;;;;;;;;4.50;99.90;;;;;;5134258;27;19907;-57
2023/01/27 00:02:43;;;;;;;;;;;4.50;99.90;;;;;;5135380;27;19981;-57
2023/01/27 00:05:09;;;;;;;;;;;4.50;99.90;;;;;;5135169;27;19907;-57
2023/01/27 00:07:35;;;;;;;;;;;4.50;99.90;;;;;;5134423;27;19907;-58
2023/01/27 00:10:01;;;;;;;;;;;4.50;99.90;;;;;;5135037;27;19916;-58
2023/01/27 00:15:12;;;;;;;;;;;4.50;99.90;;;;;;5134164;27;20049;-58
2023/01/27 00:17:37;;;;;;;;;;;4.50;99.90;;;;;;5135032;27;19907;-58
2023/01/27 00:20:04;;;;;;;;;;;4.50;99.90;;;;;;5134889;27;19914;-57
2023/01/27 00:25:14;;;;;;;;;;;4.50;99.90;;;;;;5114172;28;19964;-57
2023/01/27 00:27:39;;;;;;;;;;;4.50;99.90;;;;;;5113435;28;20378;-58
2023/01/27 00:30:05;;;;;;;;;;;4.50;99.90;;;;;;5114304;28;19915;-57
2023/01/27 00:35:16;;;;;;;;;;;4.50;99.90;;;;;;5113549;28;19915;-58
2023/01/27 00:37:42;;;;;;;;;;;4.50;99.90;;;;;;5113994;28;19908;-58
2023/01/27 00:40:09;;;;;;;;;;;4.50;99.90;;;;;;5113908;28;19907;-57
2023/01/27 00:42:34;;;;;;;;;;;4.50;99.90;;;;;;5113141;28;20394;-58
2023/01/27 00:47:44;;;;;;;;;;;4.50;99.90;;;;;;5114358;28;19919;-58
2023/01/27 00:50:09;;;;;;;;;;;4.50;99.90;;;;;;5112760;28;19920;-58
2023/01/27 00:52:35;;;;;;;;;;;4.50;99.90;;;;;;5113718;28;19969;-58
2023/01/27 00:55:00;;;;;;;;;;;4.50;99.90;;;;;;5113047;28;19974;-58
2023/01/27 00:57:26;;;;;;;;;;;4.50;99.90;;;;;;5113063;28;20293;-58
2023/01/27 00:59:51;;;;;;;;;;;4.50;99.90;;;;;;5113680;28;20004;-59
2023/01/27 01:02:18;;;;;;;;;;;4.50;99.90;;;;;;5112246;27;20294;-57
2023/01/27 01:04:44;;;;;;;;;;;4.50;99.90;;;;;;5113323;28;19978;-58
2023/01/27 01:07:09;;;;;;;;;;;4.50;99.90;;;;;;5113441;28;19915;-58
2023/01/27 01:09:35;;;;;;;;;;;4.50;99.90;;;;;;5112659;28;19916;-58
2023/01/27 01:12:00;;;;;;;;;;;4.50;99.90;;;;;;5113307;28;19915;-58
2023/01/27 01:14:26;;;;;;;;;;;4.50;99.90;;;;;;5113636;28;20327;-58
2023/01/27 01:16:51;;;;;;;;;;;4.50;99.90;;;;;;5112564;28;19908;-58
2023/01/27 01:19:17;;;;;;;;;;;4.50;99.90;;;;;;5113273;28;19915;-58
2023/01/27 01:21:42;;;;;;;;;;;4.50;99.90;;;;;;5116561;27;20038;-58
2023/01/27 01:24:07;;;;;;;;;;;4.50;99.90;;;;;;5133056;27;19918;-58
2023/01/27 01:26:33;;;;;;;;;;;4.50;99.90;;;;;;5133875;27;19907;-58
2023/01/27 01:28:58;;;;;;;;;;;4.50;99.90;;;;;;5133755;27;19912;-58
2023/01/27 01:31:24;;;;;;;;;;;4.60;99.90;;;;;;5118452;27;19916;-58
2023/01/27 01:33:49;;;;;;;;;;;4.60;99.90;;;;;;5113225;28;19919;-58
2023/01/27 01:36:16;;;;;;;;;;;4.60;99.90;;;;;;5113099;28;19948;-58
2023/01/27 01:38:42;;;;;;;;;;;4.60;99.90;;;;;;5112487;28;19930;-58
2023/01/27 01:41:10;;;;;;;;;;;4.60;99.90;;;;;;5113360;28;20429;-58
2023/01/27 01:43:35;;;;;;;;;;;4.60;99.90;;;;;;5113060;28;20282;-58
2023/01/27 01:46:01;;;;;;;;;;;4.60;99.90;;;;;;5112261;28;19914;-58
2023/01/27 01:48:35;;;;;;;;;;;4.60;99.90;;;;;;5112905;28;19908;-58
2023/01/27 01:51:03;;;;;;;;;;;4.60;99.90;;;;;;5112786;28;19916;-58
2023/01/27 01:53:35;;;;;;;;;;;4.60;99.90;;;;;;5112504;28;19912;-57
2023/01/27 01:56:04;;;;;;;;;;;4.60;99.90;;;;;;5112741;28;19959;-58
2023/01/27 01:58:29;;;;;;;;;;;4.60;99.90;;;;;;5112951;28;19944;-57
2023/01/27 02:00:55;;;;;;;;;;;4.60;99.90;;;;;;5111926;28;19954;-58
2023/01/27 02:03:22;;;;;;;;;;;4.60;99.90;;;;;;5113003;28;19919;-57
2023/01/27 02:05:48;;;;;;;;;;;4.60;99.90;;;;;;5112343;28;19908;-58
2023/01/27 02:08:18;;;;;;;;;;;4.60;99.90;;;;;;5116950;28;19960;-58
2023/01/27 02:10:44;;;;;;;;;;;4.60;99.90;;;;;;5116905;28;19924;-58
2023/01/27 02:13:10;;;;;;;;;;;4.50;99.90;;;;;;5116171;28;19996;-58
2023/01/27 02:15:36;;;;;;;;;;;4.50;99.90;;;;;;5116769;28;19908;-58
2023/01/27 02:18:02;;;;;;;;;;;4.60;99.90;;;;;;5116797;28;19908;-58
2023/01/27 02:20:34;;;;;;;;;;;4.60;99.90;;;;;;5115860;28;19952;-58
2023/01/27 02:23:06;;;;;;;;;;;4.60;99.90;;;;;;5130144;27;19907;-58
2023/01/27 02:25:35;;;;;;;;;;;4.60;99.90;;;;;;5137102;27;20282;-57
2023/01/27 02:28:00;;;;;;;;;;;4.60;99.90;;;;;;5135706;27;19915;-58
2023/01/27 02:30:26;;;;;;;;;;;4.70;99.90;;;;;;5136034;27;20060;-58
2023/01/27 02:32:51;;;;;;;;;;;4.70;99.90;;;;;;5137116;27;19914;-58
2023/01/27 02:35:22;;;;;;;;;;;4.70;99.90;;;;;;5136124;27;19951;-58
2023/01/27 02:37:48;;;;;;;;;;;4.70;99.90;;;;;;5137211;27;19907;-58
2023/01/27 02:40:15;;;;;;;;;;;4.70;99.90;;;;;;5136947;27;19911;-57
2023/01/27 02:42:40;;;;;;;;;;;4.70;99.90;;;;;;5136057;27;19972;-57
2023/01/27 02:45:06;;;;;;;;;;;4.70;99.90;;;;;;5136884;27;19919;-58
2023/01/27 02:47:31;;;;;;;;;;;4.70;99.90;;;;;;5136938;27;19914;-58
2023/01/27 02:49:57;;;;;;;;;;;4.70;99.90;;;;;;5136000;27;20270;-57
2023/01/27 02:52:22;;;;;;;;;;;4.70;99.90;;;;;;5136582;27;19907;-58
2023/01/27 02:54:48;;;;;;;;;;;4.70;99.90;;;;;;5136017;27;20286;-58
2023/01/27 02:57:13;;;;;;;;;;;4.70;99.90;;;;;;5136279;27;19911;-58
2023/01/27 02:59:38;;;;;;;;;;;4.70;99.90;;;;;;5136681;27;19959;-58
2023/01/27 03:02:04;;;;;;;;;;;4.70;99.90;;;;;;5135705;27;19926;-58
2023/01/27 03:04:29;;;;;;;;;;;4.70;99.90;;;;;;5136363;27;19908;-58
2023/01/27 03:06:55;;;;;;;;;;;4.70;99.90;;;;;;5136304;27;19908;-58
2023/01/27 03:09:20;;;;;;;;;;;4.70;99.90;;;;;;5135670;27;19915;-58
2023/01/27 03:19:59;;;;;;;;;;;4.80;99.90;;;;;;5136399;27;19946;-58
2023/01/27 03:22:25;;;;;;;;;;;4.80;99.90;;;;;;5127335;27;20309;-58
2023/01/27 03:24:50;;;;;;;;;;;4.80;99.90;;;;;;5114740;28;19911;-59
2023/01/27 03:27:16;;;;;;;;;;;4.80;99.90;;;;;;5115552;28;19920;-58
2023/01/27 03:29:56;;;;;;;;;;;4.80;99.90;;;;;;5115496;28;20388;-58
2023/01/27 03:32:23;;;;;;;;;;;4.80;99.90;;;;;;5114897;28;19908;-58
2023/01/27 03:34:49;;;;;;;;;;;4.80;99.90;;;;;;5118312;27;19908;-58
2023/01/27 03:48:11;;;;;;;;;;;4.70;99.90;;;;;;5135639;27;19914;-59
2023/01/27 03:50:40;;;;;;;;;;;4.80;99.90;;;;;;5134654;27;20290;-57
2023/01/27 03:53:06;;;;;;;;;;;4.80;99.90;;;;;;5120653;27;19918;-57
2023/01/27 03:55:33;;;;;;;;;;;4.70;99.90;;;;;;5113630;28;20010;-58
2023/01/27 03:58:16;;;;;;;;;;;4.70;99.90;;;;;;5113834;28;20430;-58
2023/01/27 04:00:42;;;;;;;;;;;4.70;99.90;;;;;;5114650;27;19916;-57
2023/01/27 04:08:36;;;;;;;;;;;4.70;99.90;;;;;;5131361;27;19960;-58
2023/01/27 04:13:47;;;;;;;;;;;4.70;99.90;;;;;;5132910;27;19964;-58
2023/01/27 04:16:12;;;;;;;;;;;4.70;99.90;;;;;;5118675;27;19941;-58
2023/01/27 04:18:38;;;;;;;;;;;4.70;99.90;;;;;;5114513;28;19974;-58
2023/01/27 04:21:03;;;;;;;;;;;4.70;99.90;;;;;;5113514;28;19961;-58
2023/01/27 04:23:28;;;;;;;;;;;4.70;99.90;;;;;;5114555;27;20282;-58
2023/01/27 04:25:55;;;;;;;;;;;4.70;99.90;;;;;;5114285;28;20389;-58
2023/01/27 04:28:21;;;;;;;;;;;4.60;99.90;;;;;;5113040;28;19976;-58
2023/01/27 04:30:46;;;;;;;;;;;4.60;99.90;;;;;;5113923;28;20302;-58
2023/01/27 04:33:14;;;;;;;;;;;4.60;99.90;;;;;;5114222;28;20411;-58
2023/01/27 04:35:43;;;;;;;;;;;4.60;99.90;;;;;;5113437;28;19908;-59
2023/01/27 04:38:09;;;;;;;;;;;4.60;99.90;;;;;;5113924;28;19908;-58
2023/01/27 04:40:34;;;;;;;;;;;4.60;99.90;;;;;;5126689;27;20267;-58
2023/01/27 04:43:00;;;;;;;;;;;4.60;99.90;;;;;;5113874;28;19907;-58
2023/01/27 04:45:25;;;;;;;;;;;4.60;99.90;;;;;;5113960;28;19921;-58
2023/01/27 04:47:51;;;;;;;;;;;4.60;99.90;;;;;;5113216;28;20040;-58
2023/01/27 04:50:16;;;;;;;;;;;4.50;99.90;;;;;;5122969;27;19919;-58
2023/01/27 04:52:44;;;;;;;;;;;4.50;99.90;;;;;;5133014;27;19923;-58
2023/01/27 04:55:09;;;;;;;;;;;4.50;99.90;;;;;;5133452;27;19931;-58
2023/01/27 04:57:35;;;;;;;;;;;4.50;99.90;;;;;;5134382;27;19911;-58
2023/01/27 05:00:01;;;;;;;;;;;4.50;99.90;;;;;;5134196;27;19952;-58
2023/01/27 05:02:26;;;;;;;;;;;4.50;99.90;;;;;;5133431;27;20366;-58
2023/01/27 05:04:52;;;;;;;;;;;4.50;99.90;;;;;;5134238;27;19907;-58
2023/01/27 05:07:17;;;;;;;;;;;4.50;99.90;;;;;;5134226;27;20322;-58
2023/01/27 05:09:42;;;;;;;;;;;4.50;99.90;;;;;;5124731;27;19916;-58
2023/01/27 05:12:08;;;;;;;;;;;4.50;99.90;;;;;;5113520;28;20480;-58
2023/01/27 05:14:33;;;;;;;;;;;4.50;99.90;;;;;;5113351;28;19907;-58
2023/01/27 05:16:59;;;;;;;;;;;4.50;99.90;;;;;;5112745;28;19943;-58
2023/01/27 05:19:24;;;;;;;;;;;4.50;99.90;;;;;;5113474;28;19911;-57
2023/01/27 05:21:50;;;;;;;;;;;4.50;99.90;;;;;;5113366;28;19912;-58
2023/01/27 05:24:15;;;;;;;;;;;4.50;99.90;;;;;;5112601;28;19908;-58
2023/01/27 05:26:41;;;;;;;;;;;4.50;99.90;;;;;;5113362;28;19995;-58
2023/01/27 05:29:07;;;;;;;;;;;4.50;99.90;;;;;;5113152;28;19916;-58
2023/01/27 05:31:33;;;;;;;;;;;4.50;99.90;;;;;;5112386;28;19908;-58
2023/01/27 05:33:59;;;;;;;;;;;4.50;99.90;;;;;;5113143;28;19914;-58
2023/01/27 05:36:25;;;;;;;;;;;4.50;99.90;;;;;;5113188;28;19912;-58
2023/01/27 05:38:51;;;;;;;;;;;4.40;99.90;;;;;;5112378;28;19915;-58
2023/01/27 05:41:17;;;;;;;;;;;4.50;99.90;;;;;;5113029;28;20031;-58
2023/01/27 05:43:45;;;;;;;;;;;4.50;99.90;;;;;;5112315;28;19916;-57
2023/01/27 05:46:12;;;;;;;;;;;4.40;99.90;;;;;;5113094;28;20002;-58
2023/01/27 05:48:38;;;;;;;;;;;4.50;99.90;;;;;;5113415;27;19908;-58
2023/01/27 05:51:04;;;;;;;;;;;4.40;99.90;;;;;;5112070;28;19916;-58
2023/01/27 05:53:30;;;;;;;;;;;4.40;99.90;;;;;;5112993;28;20023;-58
2023/01/27 05:55:56;;;;;;;;;;;4.40;99.90;;;;;;5112662;28;20386;-58
2023/01/27 05:58:21;;;;;;;;;;;4.40;99.90;;;;;;5112248;28;19915;-58
2023/01/27 06:00:47;;;;;;;;;;;4.40;99.90;;;;;;5116090;28;19918;-58
2023/01/27 06:03:13;;;;;;;;;;;4.40;99.90;;;;;;5133426;28;19908;-58
2023/01/27 06:05:47;;;;;;;;;;;4.40;99.90;;;;;;5132664;28;19914;-58
2023/01/27 06:08:12;;;;;;;;;;;4.30;99.90;;;;;;5133487;28;20263;-58
2023/01/27 06:10:38;;;;;;;;;;;4.30;99.90;;;;;;5133393;28;20020;-58
2023/01/27 06:13:03;;;;;;;;;;;4.30;99.90;;;;;;5132804;28;19940;-58
2023/01/27 06:15:29;;;;;;;;;;;4.30;99.90;;;;;;5133460;28;19908;-58
2023/01/27 06:17:55;;;;;;;;;;;4.30;99.90;;;;;;5133246;28;20312;-58
2023/01/27 06:20:20;;;;;;;;;;;4.30;99.90;;;;;;5132531;28;20006;-58
2023/01/27 06:22:46;;;;;;;;;;;4.30;99.90;;;;;;5133000;28;19912;-58
2023/01/27 06:25:11;;;;;;;;;;;4.30;99.90;;;;;;5133198;28;20384;-58
2023/01/27 06:27:37;;;;;;;;;;;4.30;99.90;;;;;;5132727;28;20365;-58
2023/01/27 06:30:02;;;;;;;;;;;4.30;99.90;;;;;;5133008;28;19915;-58
2023/01/27 06:32:28;;;;;;;;;;;4.30;99.90;;;;;;5115686;28;20293;-58
2023/01/27 06:34:53;;;;;;;;;;;4.30;99.90;;;;;;5111911;28;20002;-58
2023/01/27 06:37:19;;;;;;;;;;;4.30;99.90;;;;;;5112655;28;19958;-57
2023/01/27 06:39:44;;;;;;;;;;;4.30;99.90;;;;;;5112595;28;19912;-58
2023/01/27 06:42:10;;;;;;;;;;;4.30;99.90;;;;;;5111781;28;19915;-58
2023/01/27 06:44:35;;;;;;;;;;;4.30;99.90;;;;;;5112640;28;20279;-58
2023/01/27 06:47:00;;;;;;;;;;;4.20;99.90;;;;;;5111680;28;19912;-57
2023/01/27 06:49:26;;;;;;;;;;;4.20;99.90;;;;;;5112480;28;19919;-58
2023/01/27 06:51:51;;;;;;;;;;;4.20;99.90;;;;;;5127976;27;20002;-58
2023/01/27 06:54:17;;;;;;;;;;;4.20;99.90;;;;;;5135711;27;19992;-58
2023/01/27 06:56:42;;;;;;;;;;;4.20;99.90;;;;;;5136631;27;19907;-58
2023/01/27 06:59:08;;;;;;;;;;;4.20;99.90;;;;;;5136630;27;19954;-58
2023/01/27 07:01:34;;;;;;;;;;;4.20;99.90;;;;;;5135788;27;19946;-58
2023/01/27 07:04:00;;;;;;;;;;;4.20;99.90;;;;;;5136695;27;20361;-59
2023/01/27 07:06:25;;;;;;;;;;;4.20;99.90;;;;;;5136592;27;19914;-58
2023/01/27 07:08:51;;;;;;;;;;;4.20;99.90;;;;;;5135590;27;19930;-58
2023/01/27 07:11:16;;;;;;;;;;;4.20;99.90;;;;;;5136334;27;19964;-58
2023/01/27 07:13:42;;;;;;;;;;;4.20;99.90;;;;;;5121512;27;20015;-57
2023/01/27 07:16:07;;;;;;;;;;;4.20;99.90;;;;;;5114876;28;19908;-58
2023/01/27 07:18:32;;;;;;;;;;;4.20;99.90;;;;;;5115754;28;20321;-58
2023/01/27 07:20:58;;;;;;;;;;;4.20;99.90;;;;;;5115598;28;19908;-58
2023/01/27 07:23:23;;;;;;;;;;;4.20;99.90;;;;;;5114875;28;19915;-58
2023/01/27 07:25:49;;;;;;;;;;;4.20;99.90;;;;;;5115516;28;19907;-58
2023/01/27 07:28:14;;;;;;;;;;;4.20;99.90;;;;;;5115502;28;19908;-58
2023/01/27 07:30:40;;;;;;;;;;;4.20;99.90;;;;;;5114609;28;20367;-58
2023/01/27 07:33:06;;;;;;;;;;;4.20;99.90;;;;;;5115412;28;19912;-58
2023/01/27 07:35:32;;;;;;;;;;;4.20;99.90;;;;;;5115329;28;20002;-58
2023/01/27 07:37:57;;;;;;;;;;;4.20;99.90;;;;;;5114676;28;20332;-58
2023/01/27 07:40:23;;;;;;;;;;;4.20;99.90;;;;;;5115220;28;19915;-58
2023/01/27 07:42:49;;;;;;;;;;;4.20;99.90;;;;;;5115092;27;20271;-58
2023/01/27 07:45:14;;;;;;;;;;;4.20;99.90;;;;;;5114326;28;20374;-58
2023/01/27 07:47:40;;;;;;;;;;;4.30;99.90;;;;;;5115119;28;19912;-58
2023/01/27 07:50:05;;;;;;;;;;;4.30;99.90;;;;;;5115164;28;19915;-58
2023/01/27 07:52:31;;;;;;;;;;;4.30;99.90;;;;;;5114077;28;20363;-58
2023/01/27 07:54:56;;;;;;;;;;;4.30;99.90;;;;;;5114600;28;19920;-57
2023/01/27 07:57:22;;;;;;;;;;;4.30;99.90;;;;;;5116276;27;19919;-58
2023/01/27 07:59:47;;;;;;;;;;;4.30;99.90;;;;;;5125026;27;19908;-58
2023/01/27 08:02:13;;;;;;;;;;;4.30;99.90;;;;;;5120089;27;19911;-57
2023/01/27 08:04:38;;;;;;;;;;;4.30;99.90;;;;;;5119456;28;19960;-59
2023/01/27 08:07:04;;;;;;;;;;;4.30;99.90;;;;;;5114690;28;20267;-58
2023/01/27 08:09:30;;;;;;;;;;;4.30;99.90;;;;;;5115529;27;19934;-58
2023/01/27 08:11:55;;;;;;;;;;;4.40;99.90;;;;;;5134424;27;20279;-58
2023/01/27 08:14:21;;;;;;;;;;;4.30;99.90;;;;;;5135048;27;19915;-58
2023/01/27 08:16:46;;;;;;;;;;;4.30;99.90;;;;;;5135083;27;19914;-58
2023/01/27 08:19:12;;;;;;;;;;;4.30;99.90;;;;;;5134304;27;19914;-58
2023/01/27 08:21:37;;;;;;;;;;;4.40;99.90;;;;;;5135137;27;19911;-58
2023/01/27 08:24:03;;;;;;;;;;;4.40;99.90;;;;;;5134930;27;19907;-58
2023/01/27 08:26:28;;;;;;;;;;;4.40;99.90;;;;;;5134163;27;19908;-58
2023/01/27 08:28:54;;;;;;;;;;;4.40;99.90;;;;;;5134835;27;19954;-58
2023/01/27 08:31:19;;;;;;;;;;;4.40;99.90;;;;;;5127967;27;20018;-58
2023/01/27 08:33:48;;;;;;;;;;;4.40;99.90;;;;;;5134040;27;19911;-58
2023/01/27 08:36:15;;;;;;;;;;;4.40;99.90;;;;;;5131391;27;19911;-58
2023/01/27 08:38:41;;;;;;;;;;;4.50;99.90;;;;;;5132348;27;20388;-58
2023/01/27 08:41:09;;;;;;;;;;;4.50;99.90;;;;;;5116772;27;19939;-58
2023/01/27 08:43:34;;;;;;;;;;;4.50;99.90;;;;;;5125820;27;19911;-58
2023/01/27 08:46:00;;;;;;;;;;;4.50;99.90;;;;;;5114216;27;19908;-58
2023/01/27 08:48:29;;;;;;;;;;;4.60;99.90;;;;;;5119115;27;19907;-58
2023/01/27 08:50:55;;;;;;;;;;;4.60;99.90;;;;;;5133885;27;19919;-58
2023/01/27 08:53:21;;;;;;;;;;;4.70;99.90;;;;;;5134151;27;19907;-58
2023/01/27 08:55:47;;;;;;;;;;;4.70;99.90;;;;;;5133020;27;19927;-58
2023/01/27 08:58:12;;;;;;;;;;;4.70;99.90;;;;;;5134066;27;19911;-58
2023/01/27 09:00:39;;;;;;;;;;;4.80;99.90;;;;;;5126742;27;20534;-58
2023/01/27 09:03:04;;;;;;;;;;;4.80;99.90;;;;;;5113430;28;20395;-58
2023/01/27 09:05:30;;;;;;;;;;;4.80;99.90;;;;;;5113580;28;19908;-58
2023/01/27 09:07:55;;;;;;;;;;;4.90;99.90;;;;;;5113495;27;19919;-58
2023/01/27 09:10:21;;;;;;;;;;;5.00;99.90;;;;;;5123284;27;19938;-58
2023/01/27 09:12:46;;;;;;;;;;;5.00;99.90;;;;;;5113352;28;19915;-58
2023/01/27 09:15:13;;;;;;;;;;;5.00;99.90;;;;;;5112374;28;19908;-58
2023/01/27 09:17:38;;;;;;;;;;;5.00;99.90;;;;;;5113354;28;19908;-58
2023/01/27 09:20:04;;;;;;;;;;;5.00;99.90;;;;;;5113300;28;20006;-58
2023/01/27 09:22:30;;;;;;;;;;;5.00;99.90;;;;;;5112404;28;19908;-58
2023/01/27 09:24:55;;;;;;;;;;;5.00;99.90;;;;;;5113136;28;20248;-58
2023/01/27 09:27:21;;;;;;;;;;;5.00;99.90;;;;;;5113010;28;19908;-58
2023/01/27 09:29:46;;;;;;;;;;;5.00;99.90;;;;;;5112141;28;19912;-58
2023/01/27 09:32:11;;;;;;;;;;;5.00;99.90;;;;;;5112996;28;20343;-57
2023/01/27 09:34:40;;;;;;;;;;;5.00;99.90;;;;;;5113057;28;19961;-58
2023/01/27 09:37:07;;;;;;;;;;;5.10;99.90;;;;;;5118103;28;19933;-58
2023/01/27 09:39:35;;;;;;;;;;;5.10;99.90;;;;;;5133582;27;20002;-58
2023/01/27 09:42:13;;;;;;;;;;;5.10;99.90;;;;;;5133593;28;19907;-58
2023/01/27 09:44:49;;;;;;;;;;;5.10;99.90;;;;;;5132855;28;19953;-58
2023/01/27 09:47:27;;;;;;;;;;;5.10;99.90;;;;;;5133614;28;20367;-58
2023/01/27 09:49:53;;;;;;;;;;;5.10;99.90;;;;;;5131865;28;19919;-58
2023/01/27 09:52:21;;;;;;;;;;;5.10;99.90;;;;;;5132403;28;19912;-58
2023/01/27 09:54:47;;;;;;;;;;;5.10;99.90;;;;;;5132506;28;19919;-58
2023/01/27 09:57:28;;;;;;;;;;;5.10;99.90;;;;;;5132729;28;19960;-58
2023/01/27 10:00:12;;;;;;;;;;;5.10;99.90;;;;;;5127318;28;19908;-57
2023/01/27 10:03:16;;;;;;;;;;;5.00;99.90;;;;;;5113030;28;19977;-58
2023/01/27 10:05:50;;;;;;;;;;;5.10;99.90;;;;;;5029215;28;19978;-58
2023/01/27 10:08:34;;;;;;;;;;;5.00;99.90;;;;;;5030304;28;19960;-58
2023/01/27 10:11:09;;;;;;;;;;;5.00;99.90;;;;;;5089443;28;19916;-58
2023/01/27 10:13:57;;;;;;;;;;;5.00;99.90;;;;;;5112947;28;19908;-58
2023/01/27 10:16:23;;;;;;;;;;;5.00;99.90;;;;;;5112329;28;19914;-58
2023/01/27 10:18:55;;;;;;;;;;;5.00;99.90;;;;;;5111881;28;19994;-58
2023/01/27 10:21:23;;;;;;;;;;;4.90;99.90;;;;;;5112779;28;19915;-58
2023/01/27 10:24:08;;;;;;;;;;;4.90;99.90;;;;;;5112680;28;19908;-58
2023/01/27 10:26:39;;;;;;;;;;;4.90;99.90;;;;;;5112058;28;19907;-58
2023/01/27 10:29:08;;;;;;;;;;;4.90;99.90;;;;;;5116611;28;20366;-59
2023/01/27 10:31:43;;;;;;;;;;;4.80;99.90;;;;;;5117448;27;20362;-58
2023/01/27 10:34:17;;;;;;;;;;;4.90;99.90;;;;;;5127061;27;19914;-58
2023/01/27 10:36:43;;;;;;;;;;;4.90;99.90;;;;;;5117096;27;19908;-58
2023/01/27 10:39:11;;;;;;;;;;;4.90;99.90;;;;;;5124376;27;19960;-58
2023/01/27 10:41:36;;;;;;;;;;;4.90;99.90;;;;;;5136965;27;20358;-58
2023/01/27 10:44:09;;;;;;;;;;;4.80;99.90;;;;;;5136906;27;20183;-58
2023/01/27 10:46:44;;;;;;;;;;;4.80;99.90;;;;;;5130043;27;19958;-58
2023/01/27 10:49:22;;;;;;;;;;;4.90;99.90;;;;;;5117166;27;19965;-57
2023/01/27 10:51:56;;;;;;;;;;;4.80;99.90;;;;;;5116292;28;19912;-58
2023/01/27 10:54:33;;;;;;;;;;;4.90;99.90;;;;;;5115112;28;19915;-58
2023/01/27 10:57:05;;;;;;;;;;;4.80;99.90;;;;;;5116101;28;19907;-58
2023/01/27 10:59:42;;;;;;;;;;;4.90;99.90;;;;;;5115998;28;20363;-58
2023/01/27 11:02:08;;;;;;;;;;;4.90;99.90;;;;;;5115134;27;19911;-58
2023/01/27 11:04:38;;;;;;;;;;;4.90;99.90;;;;;;5128363;27;19915;-58
2023/01/27 11:07:04;;;;;;;;;;;4.80;99.90;;;;;;5127592;27;19919;-58
2023/01/27 11:09:32;;;;;;;;;;;4.90;99.90;;;;;;5126052;27;19912;-58
2023/01/27 11:12:04;;;;;;;;;;;4.90;99.90;;;;;;5136376;27;20055;-57
2023/01/27 11:14:48;;;;;;;;;;;4.90;99.90;;;;;;5135686;27;19912;-58
2023/01/27 11:17:17;;;;;;;;;;;4.90;99.90;;;;;;5136193;27;19914;-58
2023/01/27 11:19:45;;;;;;;;;;;4.90;99.90;;;;;;5136228;27;19908;-58
2023/01/27 11:22:17;;;;;;;;;;;4.90;99.90;;;;;;5135536;27;19981;-58
2023/01/27 11:24:44;;;;;;;;;;;5.00;99.90;;;;;;5135946;27;19908;-58
2023/01/27 11:27:17;;;;;;;;;;;5.00;99.90;;;;;;5123080;27;19916;-58
2023/01/27 11:29:55;;;;;;;;;;;5.00;99.90;;;;;;5120575;27;20034;-58
2023/01/27 11:32:38;;;;;;;;;;;5.00;99.90;;;;;;5116909;27;19915;-57
2023/01/27 11:35:05;;;;;;;;;;;5.00;99.90;;;;;;5113074;28;19961;-58
2023/01/27 11:37:45;;;;;;;;;;;5.00;99.90;;;;;;5121697;27;19938;-57
2023/01/27 11:40:16;;;;;;;;;;;5.10;99.90;;;;;;5134144;27;19915;-58
2023/01/27 11:42:42;;;;;;;;;;;5.00;99.90;;;;;;5134083;27;20362;-58
2023/01/27 11:45:12;;;;;;;;;;;5.10;99.90;;;;;;5134648;27;19929;-58
2023/01/27 11:47:40;;;;;;;;;;;5.10;99.90;;;;;;5134938;27;20010;-58
2023/01/27 11:50:06;;;;;;;;;;;5.20;99.90;;;;;;5133139;27;19915;-57
2023/01/27 11:52:32;;;;;;;;;;;5.20;99.90;;;;;;5123186;27;19986;-57
2023/01/27 11:55:30;;;;;;;;;;;5.20;99.90;;;;;;5123867;27;19924;-58
2023/01/27 11:58:11;;;;;;;;;;;5.30;99.90;;;;;;5077384;27;19939;-58
2023/01/27 12:00:40;;;;;;;;;;;5.30;99.90;;;;;;5122443;27;20007;-57
2023/01/27 12:03:11;;;;;;;;;;;5.30;99.90;;;;;;5114661;28;20363;-58
2023/01/27 12:05:39;;;;;;;;;;;5.30;99.90;;;;;;5114052;28;19908;-58
2023/01/27 12:08:05;;;;;;;;;;;5.30;99.90;;;;;;5115544;27;20259;-57
2023/01/27 12:10:30;;;;;;;;;;;5.30;99.90;;;;;;5125034;27;19922;-57
2023/01/27 12:12:57;;;;;;;;;;;5.30;99.90;;;;;;5114637;28;19908;-58
2023/01/27 12:15:24;;;;;;;;;;;5.40;99.90;;;;;;5114957;28;19908;-57
2023/01/27 12:17:59;;;;;;;;;;;5.30;99.90;;;;;;5134339;27;20028;-57
2023/01/27 12:20:27;;;;;;;;;;;5.30;99.90;;;;;;5135299;27;19932;-57
2023/01/27 12:22:54;;;;;;;;;;;5.30;99.90;;;;;;5126002;27;20002;-58
2023/01/27 12:25:27;;;;;;;;;;;5.30;99.90;;;;;;5114826;27;19908;-58
2023/01/27 12:27:57;;;;;;;;;;;5.30;99.90;;;;;;5114273;28;19908;-57
2023/01/27 12:30:25;;;;;;;;;;;5.30;99.90;;;;;;5114269;28;20345;-57
2023/01/27 12:32:50;;;;;;;;;;;5.30;99.90;;;;;;5113712;28;19918;-58
2023/01/27 12:35:20;;;;;;;;;;;5.30;99.90;;;;;;5114182;28;19907;-58
2023/01/27 12:37:46;;;;;;;;;;;5.30;99.90;;;;;;5114036;28;19962;-58
2023/01/27 12:40:20;;;;;;;;;;;5.30;99.90;;;;;;5114365;27;19919;-57
2023/01/27 12:42:52;;;;;;;;;;;5.30;99.90;;;;;;5113995;28;19911;-58
2023/01/27 12:45:17;;;;;;;;;;;5.30;99.90;;;;;;5114026;28;19908;-58
2023/01/27 12:47:53;;;;;;;;;;;5.30;99.90;;;;;;5123813;27;19911;-57
2023/01/27 12:50:20;;;;;;;;;;;5.30;99.90;;;;;;5113978;27;19927;-57
2023/01/27 12:52:53;;;;;;;;;;;5.30;99.90;;;;;;5125108;27;19911;-57
2023/01/27 12:55:29;;;;;;;;;;;5.30;99.90;;;;;;5134144;27;19944;-58
2023/01/27 12:57:54;;;;;;;;;;;5.30;99.90;;;;;;5134378;27;19943;-58
2023/01/27 13:00:20;;;;;;;;;;;5.30;99.90;;;;;;5120495;27;20362;-57
2023/01/27 13:02:47;;;;;;;;;;;5.30;99.90;;;;;;5113819;28;19915;-58
2023/01/27 13:05:14;;;;;;;;;;;5.30;99.90;;;;;;5113693;28;19943;-57
2023/01/27 13:07:47;;;;;;;;;;;5.30;99.90;;;;;;5112781;28;20358;-58
2023/01/27 13:10:23;;;;;;;;;;;5.30;99.90;;;;;;5113557;28;20332;-58
2023/01/27 13:12:50;;;;;;;;;;;5.30;99.90;;;;;;5113590;28;19908;-58
2023/01/27 13:15:16;;;;;;;;;;;5.30;99.90;;;;;;5113707;28;20310;-57
2023/01/27 13:17:47;;;;;;;;;;;5.30;99.90;;;;;;5113869;28;19908;-57
2023/01/27 13:20:29;;;;;;;;;;;5.30;99.90;;;;;;5112913;28;20007;-58
2023/01/27 13:22:58;;;;;;;;;;;5.30;99.90;;;;;;5111231;27;19978;-57
2023/01/27 13:25:27;;;;;;;;;;;5.30;99.90;;;;;;5117620;27;19911;-57
2023/01/27 13:27:54;;;;;;;;;;;5.30;99.90;;;;;;5132285;27;20317;-57
2023/01/27 13:30:19;;;;;;;;;;;5.20;99.90;;;;;;5133812;27;20390;-58
2023/01/27 13:32:47;;;;;;;;;;;5.30;99.90;;;;;;5133925;27;20482;-57
2023/01/27 13:35:30;;;;;;;;;;;5.30;99.90;;;;;;5133146;27;19958;-58
2023/01/27 13:38:22;;;;;;;;;;;5.30;99.90;;;;;;5133822;27;19908;-57
2023/01/27 13:40:48;;;;;;;;;;;5.20;99.90;;;;;;5129432;28;19908;-58
2023/01/27 13:43:18;;;;;;;;;;;5.30;99.90;;;;;;5133015;28;19915;-57
2023/01/27 13:45:53;;;;;;;;;;;5.20;99.90;;;;;;5133711;28;19908;-57
2023/01/27 13:48:30;;;;;;;;;;;5.30;99.90;;;;;;5133860;28;19907;-58
2023/01/27 13:50:56;;;;;;;;;;;5.30;99.90;;;;;;5132931;28;19923;-58
2023/01/27 13:53:21;;;;;;;;;;;5.20;99.90;;;;;;5133587;28;20008;-58
2023/01/27 13:56:05;;;;;;;;;;;5.20;99.90;;;;;;5131443;28;19920;-58
2023/01/27 13:58:42;;;;;;;;;;;5.20;99.90;;;;;;5133803;28;19952;-57
2023/01/27 14:01:26;;;;;;;;;;;5.30;99.90;;;;;;5134571;27;19907;-57
2023/01/27 14:04:00;;;;;;;;;;;5.20;99.90;;;;;;5136741;27;19907;-58
2023/01/27 14:06:32;;;;;;;;;;;5.20;99.90;;;;;;5137814;27;20111;-58
2023/01/27 14:09:04;;;;;;;;;;;5.20;99.90;;;;;;5137679;27;20358;-58
2023/01/27 14:11:32;;;;;;;;;;;5.20;99.90;;;;;;5136899;27;19916;-58
2023/01/27 14:14:16;;;;;;;;;;;5.10;99.90;;;;;;5137535;27;19998;-57
2023/01/27 14:16:54;;;;;;;;;;;5.10;99.90;;;;;;5137559;27;19907;-58
2023/01/27 14:19:38;;;;;;;;;;;5.10;99.90;;;;;;5123869;27;19915;-57
2023/01/27 14:22:03;;;;;;;;;;;5.10;99.90;;;;;;5116592;28;20279;-58
2023/01/27 14:24:44;;;;;;;;;;;5.10;99.90;;;;;;5120625;27;19915;-57
2023/01/27 14:27:13;;;;;;;;;;;5.10;99.90;;;;;;5117454;27;20388;-57
2023/01/27 14:29:57;;;;;;;;;;;5.00;99.90;;;;;;5116494;28;19916;-58
2023/01/27 14:32:31;;;;;;;;;;;5.00;99.90;;;;;;5115913;28;19908;-57
2023/01/27 14:35:06;;;;;;;;;;;4.90;99.90;;;;;;5116525;28;20339;-57
2023/01/27 14:37:51;;;;;;;;;;;4.90;99.90;;;;;;5116835;27;19915;-58
2023/01/27 14:40:21;;;;;;;;;;;4.90;99.90;;;;;;5125947;27;20006;-58
2023/01/27 14:42:47;;;;;;;;;;;4.90;99.90;;;;;;5136904;27;20437;-58
2023/01/27 14:45:21;;;;;;;;;;;4.90;99.90;;;;;;5136048;27;19991;-57
2023/01/27 14:47:52;;;;;;;;;;;4.90;99.90;;;;;;5136869;27;20282;-57
2023/01/27 14:50:20;;;;;;;;;;;4.90;99.90;;;;;;5136931;27;20014;-58
2023/01/27 14:52:52;;;;;;;;;;;4.90;99.90;;;;;;5134222;27;19915;-57
2023/01/27 14:55:17;;;;;;;;;;;4.90;99.90;;;;;;5123556;27;19994;-58
2023/01/27 14:58:02;;;;;;;;;;;4.90;99.90;;;;;;5136371;27;19919;-58
2023/01/27 15:00:34;;;;;;;;;;;4.80;99.90;;;;;;5135926;27;20277;-58
2023/01/27 15:03:18;;;;;;;;;;;4.80;99.90;;;;;;5136607;27;19908;-57
2023/01/27 15:05:56;;;;;;;;;;;4.70;99.90;;;;;;5125630;27;19915;-57
2023/01/27 15:08:37;;;;;;;;;;;4.70;99.90;;;;;;5122983;27;19952;-57
2023/01/27 15:11:32;;;;;;;;;;;4.70;99.90;;;;;;5136292;27;19916;-57
2023/01/27 15:13:57;;;;;;;;;;;4.70;99.90;;;;;;5100422;28;19908;-57
2023/01/27 15:16:36;;;;;;;;;;;4.60;99.90;;;;;;5115907;28;19961;-57